sensor_id;sensor_type;location;lat;lon;timestamp;temperature;humidity
27226;DHT22;14732;51.074;3.788;2023-07-16T00:01:27;19.10;99.90
27226;DHT22;14732;51.074;3.788;2023-07-16T00:03:53;19.10;99.90
27226;DHT22;14732;51.074;3.788;2023-07-16T00:06:19;19.10;99.90
27226;DHT22;14732;51.074;3.788;2023-07-16T00:08:49;19.10;99.90
27226;DHT22;14732;51.074;3.788;2023-07-16T00:11:15;19.10;99.90
27226;DHT22;14732;51.074;3.788;2023-07-16T00:13:46;19.00;99.90
27226;DHT22;14732;51.074;3.788;2023-07-16T00:16:14;19.10;99.90
27226;DHT22;14732;51.074;3.788;2023-07-16T00:18:43;19.10;99.90
27226;DHT22;14732;51.074;3.788;2023-07-16T00:21:10;19.00;99.90
27226;DHT22;14732;51.074;3.788;2023-07-16T00:23:40;18.90;99.90
27226;DHT22;14732;51.074;3.788;2023-07-16T00:26:13;18.90;99.90
27226;DHT22;14732;51.074;3.788;2023-07-16T00:28:41;18.80;99.90
27226;DHT22;14732;51.074;3.788;2023-07-16T00:31:08;18.80;99.90
27226;DHT22;14732;51.074;3.788;2023-07-16T00:33:33;18.80;99.90
27226;DHT22;14732;51.074;3.788;2023-07-16T00:35:59;18.80;99.90
27226;DHT22;14732;51.074;3.788;2023-07-16T00:38:26;18.80;99.90
27226;DHT22;14732;51.074;3.788;2023-07-16T00:40:51;18.70;99.90
27226;DHT22;14732;51.074;3.788;2023-07-16T00:43:18;18.70;99.90
27226;DHT22;14732;51.074;3.788;2023-07-16T00:45:47;18.70;99.90
27226;DHT22;14732;51.074;3.788;2023-07-16T00:48:14;18.60;99.90
27226;DHT22;14732;51.074;3.788;2023-07-16T00:50:42;18.60;99.90
27226;DHT22;14732;51.074;3.788;2023-07-16T00:53:11;18.70;99.90
27226;DHT22;14732;51.074;3.788;2023-07-16T00:55:39;18.70;99.90
27226;DHT22;14732;51.074;3.788;2023-07-16T00:58:06;18.60;99.90
27226;DHT22;14732;51.074;3.788;2023-07-16T01:00:35;18.60;99.90
27226;DHT22;14732;51.074;3.788;2023-07-16T01:03:09;18.60;99.90
27226;DHT22;14732;51.074;3.788;2023-07-16T01:05:45;18.60;99.90
27226;DHT22;14732;51.074;3.788;2023-07-16T01:08:12;18.50;99.90
27226;DHT22;14732;51.074;3.788;2023-07-16T01:10:40;18.50;99.90
27226;DHT22;14732;51.074;3.788;2023-07-16T01:13:07;18.50;99.90
27226;DHT22;14732;51.074;3.788;2023-07-16T01:15:32;18.50;99.90
27226;DHT22;14732;51.074;3.788;2023-07-16T01:17:58;18.40;99.90
27226;DHT22;14732;51.074;3.788;2023-07-16T01:20:24;18.50;99.90
27226;DHT22;14732;51.074;3.788;2023-07-16T01:23:32;18.60;99.90
27226;DHT22;14732;51.074;3.788;2023-07-16T01:29:10;18.50;99.90
27226;DHT22;14732;51.074;3.788;2023-07-16T01:31:41;18.50;99.90
27226;DHT22;14732;51.074;3.788;2023-07-16T01:34:08;18.50;99.90
27226;DHT22;14732;51.074;3.788;2023-07-16T01:36:36;18.40;99.90
27226;DHT22;14732;51.074;3.788;2023-07-16T01:39:03;18.50;99.90
27226;DHT22;14732;51.074;3.788;2023-07-16T01:41:29;18.50;99.90
27226;DHT22;14732;51.074;3.788;2023-07-16T01:43:55;18.50;99.90
27226;DHT22;14732;51.074;3.788;2023-07-16T01:46:20;18.50;99.90
27226;DHT22;14732;51.074;3.788;2023-07-16T01:48:47;18.50;99.90
27226;DHT22;14732;51.074;3.788;2023-07-16T01:51:13;18.50;99.90
27226;DHT22;14732;51.074;3.788;2023-07-16T01:53:40;18.50;99.90
27226;DHT22;14732;51.074;3.788;2023-07-16T01:56:05;18.50;99.90
27226;DHT22;14732;51.074;3.788;2023-07-16T01:58:31;18.50;99.90
27226;DHT22;14732;51.074;3.788;2023-07-16T02:00:57;18.60;99.90
27226;DHT22;14732;51.074;3.788;2023-07-16T02:03:23;18.70;99.90
27226;DHT22;14732;51.074;3.788;2023-07-16T02:05:50;18.70;99.90
27226;DHT22;14732;51.074;3.788;2023-07-16T02:08:18;18.60;99.90
27226;DHT22;14732;51.074;3.788;2023-07-16T02:10:59;18.70;99.90
27226;DHT22;14732;51.074;3.788;2023-07-16T02:13:27;18.70;99.90
27226;DHT22;14732;51.074;3.788;2023-07-16T02:16:02;18.70;99.90
27226;DHT22;14732;51.074;3.788;2023-07-16T02:18:33;18.60;99.90
27226;DHT22;14732;51.074;3.788;2023-07-16T02:21:00;18.60;99.90
27226;DHT22;14732;51.074;3.788;2023-07-16T02:23:27;18.60;99.90
27226;DHT22;14732;51.074;3.788;2023-07-16T02:25:53;18.60;99.90
27226;DHT22;14732;51.074;3.788;2023-07-16T02:28:18;18.50;99.90
27226;DHT22;14732;51.074;3.788;2023-07-16T02:30:44;18.60;99.90
27226;DHT22;14732;51.074;3.788;2023-07-16T02:33:11;18.50;99.90
27226;DHT22;14732;51.074;3.788;2023-07-16T02:35:46;18.50;99.90
27226;DHT22;14732;51.074;3.788;2023-07-16T02:38:17;18.60;99.90
27226;DHT22;14732;51.074;3.788;2023-07-16T02:40:48;18.60;99.90
27226;DHT22;14732;51.074;3.788;2023-07-16T02:43:15;18.50;99.90
27226;DHT22;14732;51.074;3.788;2023-07-16T02:45:42;18.50;99.90
27226;DHT22;14732;51.074;3.788;2023-07-16T02:48:10;18.50;99.90
27226;DHT22;14732;51.074;3.788;2023-07-16T02:50:42;18.50;99.90
27226;DHT22;14732;51.074;3.788;2023-07-16T02:53:08;18.40;99.90
27226;DHT22;14732;51.074;3.788;2023-07-16T02:55:39;18.50;99.90
27226;DHT22;14732;51.074;3.788;2023-07-16T02:58:06;18.40;99.90
27226;DHT22;14732;51.074;3.788;2023-07-16T03:00:39;18.30;99.90
27226;DHT22;14732;51.074;3.788;2023-07-16T03:03:07;18.20;99.90
27226;DHT22;14732;51.074;3.788;2023-07-16T03:05:33;18.20;99.90
27226;DHT22;14732;51.074;3.788;2023-07-16T03:07:59;18.30;99.90
27226;DHT22;14732;51.074;3.788;2023-07-16T03:10:25;18.30;99.90
27226;DHT22;14732;51.074;3.788;2023-07-16T03:12:52;18.30;99.90
27226;DHT22;14732;51.074;3.788;2023-07-16T03:15:29;18.20;99.90
27226;DHT22;14732;51.074;3.788;2023-07-16T03:17:54;18.00;99.90
27226;DHT22;14732;51.074;3.788;2023-07-16T03:20:20;18.10;99.90
27226;DHT22;14732;51.074;3.788;2023-07-16T03:22:52;18.30;99.90
27226;DHT22;14732;51.074;3.788;2023-07-16T03:25:20;18.30;99.90
27226;DHT22;14732;51.074;3.788;2023-07-16T03:27:45;18.30;99.90
27226;DHT22;14732;51.074;3.788;2023-07-16T03:30:11;18.30;99.90
27226;DHT22;14732;51.074;3.788;2023-07-16T03:32:37;18.30;99.90
27226;DHT22;14732;51.074;3.788;2023-07-16T03:35:02;18.30;99.90
27226;DHT22;14732;51.074;3.788;2023-07-16T03:37:28;18.40;99.90
27226;DHT22;14732;51.074;3.788;2023-07-16T03:39:55;18.50;99.90
27226;DHT22;14732;51.074;3.788;2023-07-16T03:42:21;18.50;99.90
27226;DHT22;14732;51.074;3.788;2023-07-16T03:44:49;18.40;99.90
27226;DHT22;14732;51.074;3.788;2023-07-16T03:47:18;18.30;99.90
27226;DHT22;14732;51.074;3.788;2023-07-16T03:49:45;18.30;99.90
27226;DHT22;14732;51.074;3.788;2023-07-16T03:52:15;18.20;99.90
27226;DHT22;14732;51.074;3.788;2023-07-16T03:54:49;18.20;99.90
27226;DHT22;14732;51.074;3.788;2023-07-16T03:57:16;18.20;99.90
27226;DHT22;14732;51.074;3.788;2023-07-16T03:59:42;18.20;99.90
27226;DHT22;14732;51.074;3.788;2023-07-16T04:02:09;18.10;99.90
27226;DHT22;14732;51.074;3.788;2023-07-16T04:04:36;18.20;99.90
27226;DHT22;14732;51.074;3.788;2023-07-16T04:07:04;18.20;99.90
27226;DHT22;14732;51.074;3.788;2023-07-16T04:09:36;18.20;99.90
27226;DHT22;14732;51.074;3.788;2023-07-16T04:12:03;18.10;99.90
27226;DHT22;14732;51.074;3.788;2023-07-16T04:14:29;18.10;99.90
27226;DHT22;14732;51.074;3.788;2023-07-16T04:16:56;18.20;99.90
27226;DHT22;14732;51.074;3.788;2023-07-16T04:19:23;18.10;99.90
27226;DHT22;14732;51.074;3.788;2023-07-16T04:21:50;18.10;99.90
27226;DHT22;14732;51.074;3.788;2023-07-16T04:24:16;18.00;99.90
27226;DHT22;14732;51.074;3.788;2023-07-16T04:26:42;18.00;99.90
27226;DHT22;14732;51.074;3.788;2023-07-16T04:29:08;18.10;99.90
27226;DHT22;14732;51.074;3.788;2023-07-16T04:31:33;18.10;99.90
27226;DHT22;14732;51.074;3.788;2023-07-16T04:33:59;18.30;99.90
27226;DHT22;14732;51.074;3.788;2023-07-16T04:36:25;18.20;99.90
27226;DHT22;14732;51.074;3.788;2023-07-16T04:38:50;18.20;99.90
27226;DHT22;14732;51.074;3.788;2023-07-16T04:41:16;18.20;99.90
27226;DHT22;14732;51.074;3.788;2023-07-16T04:43:42;18.30;99.90
27226;DHT22;14732;51.074;3.788;2023-07-16T04:46:08;18.30;99.90
27226;DHT22;14732;51.074;3.788;2023-07-16T04:48:33;18.30;99.90
27226;DHT22;14732;51.074;3.788;2023-07-16T04:50:59;18.40;99.90
27226;DHT22;14732;51.074;3.788;2023-07-16T04:53:25;18.40;99.90
27226;DHT22;14732;51.074;3.788;2023-07-16T04:55:50;18.50;99.90
27226;DHT22;14732;51.074;3.788;2023-07-16T04:58:16;18.50;99.90
27226;DHT22;14732;51.074;3.788;2023-07-16T05:00:42;18.50;99.90
27226;DHT22;14732;51.074;3.788;2023-07-16T05:03:08;18.50;99.90
27226;DHT22;14732;51.074;3.788;2023-07-16T05:05:33;18.50;99.90
27226;DHT22;14732;51.074;3.788;2023-07-16T05:08:00;18.50;99.90
27226;DHT22;14732;51.074;3.788;2023-07-16T05:10:27;18.50;99.90
27226;DHT22;14732;51.074;3.788;2023-07-16T05:12:52;18.60;99.90
27226;DHT22;14732;51.074;3.788;2023-07-16T05:15:18;18.70;99.90
27226;DHT22;14732;51.074;3.788;2023-07-16T05:17:44;18.80;99.90
27226;DHT22;14732;51.074;3.788;2023-07-16T05:20:12;18.80;99.90
27226;DHT22;14732;51.074;3.788;2023-07-16T05:22:40;18.80;99.90
27226;DHT22;14732;51.074;3.788;2023-07-16T05:25:07;18.90;99.90
27226;DHT22;14732;51.074;3.788;2023-07-16T05:27:41;19.40;99.90
27226;DHT22;14732;51.074;3.788;2023-07-16T05:30:10;20.20;99.90
27226;DHT22;14732;51.074;3.788;2023-07-16T05:32:36;20.80;99.90
27226;DHT22;14732;51.074;3.788;2023-07-16T05:35:02;21.50;99.90
27226;DHT22;14732;51.074;3.788;2023-07-16T05:37:28;22.60;99.90
27226;DHT22;14732;51.074;3.788;2023-07-16T05:39:55;23.70;99.90
27226;DHT22;14732;51.074;3.788;2023-07-16T05:42:23;24.30;99.90
27226;DHT22;14732;51.074;3.788;2023-07-16T05:44:49;24.80;99.90
27226;DHT22;14732;51.074;3.788;2023-07-16T05:47:16;25.20;99.90
27226;DHT22;14732;51.074;3.788;2023-07-16T05:49:41;25.40;99.90
27226;DHT22;14732;51.074;3.788;2023-07-16T05:52:08;25.70;99.90
27226;DHT22;14732;51.074;3.788;2023-07-16T05:54:35;26.40;99.90
27226;DHT22;14732;51.074;3.788;2023-07-16T05:57:08;27.20;99.90
27226;DHT22;14732;51.074;3.788;2023-07-16T05:59:35;27.90;99.10
27226;DHT22;14732;51.074;3.788;2023-07-16T06:02:05;28.10;97.70
27226;DHT22;14732;51.074;3.788;2023-07-16T06:04:31;27.90;97.10
27226;DHT22;14732;51.074;3.788;2023-07-16T06:07:04;27.90;96.60
27226;DHT22;14732;51.074;3.788;2023-07-16T06:09:32;27.90;96.20
27226;DHT22;14732;51.074;3.788;2023-07-16T06:11:59;28.20;95.70
27226;DHT22;14732;51.074;3.788;2023-07-16T06:14:28;28.30;95.30
27226;DHT22;14732;51.074;3.788;2023-07-16T06:16:55;28.30;94.50
27226;DHT22;14732;51.074;3.788;2023-07-16T06:19:22;28.50;94.40
27226;DHT22;14732;51.074;3.788;2023-07-16T06:21:51;29.00;93.80
27226;DHT22;14732;51.074;3.788;2023-07-16T06:24:17;29.30;93.40
27226;DHT22;14732;51.074;3.788;2023-07-16T06:26:46;29.20;92.70
27226;DHT22;14732;51.074;3.788;2023-07-16T06:29:14;28.90;92.70
27226;DHT22;14732;51.074;3.788;2023-07-16T06:31:53;28.70;93.70
27226;DHT22;14732;51.074;3.788;2023-07-16T06:34:27;28.90;93.20
27226;DHT22;14732;51.074;3.788;2023-07-16T06:36:54;28.10;93.50
27226;DHT22;14732;51.074;3.788;2023-07-16T06:39:20;27.00;94.60
27226;DHT22;14732;51.074;3.788;2023-07-16T06:41:48;25.80;96.30
27226;DHT22;14732;51.074;3.788;2023-07-16T06:44:13;25.10;98.00
27226;DHT22;14732;51.074;3.788;2023-07-16T06:46:40;24.90;99.10
27226;DHT22;14732;51.074;3.788;2023-07-16T06:49:06;24.50;99.90
27226;DHT22;14732;51.074;3.788;2023-07-16T06:51:32;24.20;99.90
27226;DHT22;14732;51.074;3.788;2023-07-16T06:53:59;23.50;99.90
27226;DHT22;14732;51.074;3.788;2023-07-16T06:56:33;23.20;99.90
27226;DHT22;14732;51.074;3.788;2023-07-16T06:59:10;23.20;99.90
27226;DHT22;14732;51.074;3.788;2023-07-16T07:01:38;23.20;99.90
27226;DHT22;14732;51.074;3.788;2023-07-16T07:04:05;23.30;99.90
27226;DHT22;14732;51.074;3.788;2023-07-16T07:06:37;23.40;99.90
27226;DHT22;14732;51.074;3.788;2023-07-16T07:09:09;23.30;99.90
27226;DHT22;14732;51.074;3.788;2023-07-16T07:11:35;23.20;99.90
27226;DHT22;14732;51.074;3.788;2023-07-16T07:14:02;23.30;99.90
27226;DHT22;14732;51.074;3.788;2023-07-16T07:16:28;23.20;99.90
27226;DHT22;14732;51.074;3.788;2023-07-16T07:18:58;23.20;99.90
27226;DHT22;14732;51.074;3.788;2023-07-16T07:21:33;23.30;99.90
27226;DHT22;14732;51.074;3.788;2023-07-16T07:23:59;23.40;99.90
27226;DHT22;14732;51.074;3.788;2023-07-16T07:26:25;23.40;99.90
27226;DHT22;14732;51.074;3.788;2023-07-16T07:29:01;23.50;99.90
27226;DHT22;14732;51.074;3.788;2023-07-16T07:31:28;23.50;99.90
27226;DHT22;14732;51.074;3.788;2023-07-16T07:33:53;23.50;99.90
27226;DHT22;14732;51.074;3.788;2023-07-16T07:36:19;23.70;99.90
27226;DHT22;14732;51.074;3.788;2023-07-16T07:38:45;23.90;99.90
27226;DHT22;14732;51.074;3.788;2023-07-16T07:41:11;23.60;99.90
27226;DHT22;14732;51.074;3.788;2023-07-16T07:43:37;23.40;99.90
27226;DHT22;14732;51.074;3.788;2023-07-16T07:46:02;23.40;99.90
27226;DHT22;14732;51.074;3.788;2023-07-16T07:48:28;23.60;99.90
27226;DHT22;14732;51.074;3.788;2023-07-16T07:50:54;23.70;99.90
27226;DHT22;14732;51.074;3.788;2023-07-16T07:53:19;23.60;99.90
27226;DHT22;14732;51.074;3.788;2023-07-16T07:55:46;23.70;99.90
27226;DHT22;14732;51.074;3.788;2023-07-16T07:58:12;23.60;99.90
27226;DHT22;14732;51.074;3.788;2023-07-16T08:00:38;23.50;99.90
27226;DHT22;14732;51.074;3.788;2023-07-16T08:03:04;23.40;99.90
27226;DHT22;14732;51.074;3.788;2023-07-16T08:05:31;23.20;99.90
27226;DHT22;14732;51.074;3.788;2023-07-16T08:07:56;23.00;99.90
27226;DHT22;14732;51.074;3.788;2023-07-16T08:10:22;23.00;99.90
27226;DHT22;14732;51.074;3.788;2023-07-16T08:12:48;23.00;99.90
27226;DHT22;14732;51.074;3.788;2023-07-16T08:15:14;23.10;99.90
27226;DHT22;14732;51.074;3.788;2023-07-16T08:17:44;23.00;99.90
27226;DHT22;14732;51.074;3.788;2023-07-16T08:20:10;22.80;99.90
27226;DHT22;14732;51.074;3.788;2023-07-16T08:22:37;22.90;99.90
27226;DHT22;14732;51.074;3.788;2023-07-16T08:25:03;22.90;99.90
27226;DHT22;14732;51.074;3.788;2023-07-16T08:27:29;22.80;99.90
27226;DHT22;14732;51.074;3.788;2023-07-16T08:29:55;22.70;99.90
27226;DHT22;14732;51.074;3.788;2023-07-16T08:32:24;22.80;99.90
27226;DHT22;14732;51.074;3.788;2023-07-16T08:34:55;22.80;99.90
27226;DHT22;14732;51.074;3.788;2023-07-16T08:37:24;22.70;99.90
27226;DHT22;14732;51.074;3.788;2023-07-16T08:39:59;22.60;99.90
27226;DHT22;14732;51.074;3.788;2023-07-16T08:42:46;22.50;99.90
27226;DHT22;14732;51.074;3.788;2023-07-16T08:45:17;22.40;99.90
27226;DHT22;14732;51.074;3.788;2023-07-16T08:47:47;22.50;99.90
27226;DHT22;14732;51.074;3.788;2023-07-16T08:50:14;22.50;99.90
27226;DHT22;14732;51.074;3.788;2023-07-16T08:52:43;22.60;99.90
27226;DHT22;14732;51.074;3.788;2023-07-16T08:55:11;22.60;99.90
27226;DHT22;14732;51.074;3.788;2023-07-16T08:57:38;22.60;99.90
27226;DHT22;14732;51.074;3.788;2023-07-16T09:00:06;22.50;99.90
27226;DHT22;14732;51.074;3.788;2023-07-16T09:02:33;22.40;99.90
27226;DHT22;14732;51.074;3.788;2023-07-16T09:05:07;22.40;99.90
27226;DHT22;14732;51.074;3.788;2023-07-16T09:07:36;22.30;99.90
27226;DHT22;14732;51.074;3.788;2023-07-16T09:10:11;22.40;99.90
27226;DHT22;14732;51.074;3.788;2023-07-16T09:12:47;22.30;99.90
27226;DHT22;14732;51.074;3.788;2023-07-16T09:15:17;22.30;99.90
27226;DHT22;14732;51.074;3.788;2023-07-16T09:17:55;22.20;99.90
27226;DHT22;14732;51.074;3.788;2023-07-16T09:20:22;22.10;99.90
27226;DHT22;14732;51.074;3.788;2023-07-16T09:23:00;22.10;99.90
27226;DHT22;14732;51.074;3.788;2023-07-16T09:25:31;22.00;99.90
27226;DHT22;14732;51.074;3.788;2023-07-16T09:28:06;22.00;99.90
27226;DHT22;14732;51.074;3.788;2023-07-16T09:30:34;21.80;99.90
27226;DHT22;14732;51.074;3.788;2023-07-16T09:33:17;21.70;99.90
27226;DHT22;14732;51.074;3.788;2023-07-16T09:35:43;21.60;99.90
27226;DHT22;14732;51.074;3.788;2023-07-16T09:38:11;21.30;99.90
27226;DHT22;14732;51.074;3.788;2023-07-16T09:40:38;21.20;99.90
27226;DHT22;14732;51.074;3.788;2023-07-16T09:43:14;21.40;99.90
27226;DHT22;14732;51.074;3.788;2023-07-16T09:45:42;21.40;99.90
27226;DHT22;14732;51.074;3.788;2023-07-16T09:48:17;21.60;99.90
27226;DHT22;14732;51.074;3.788;2023-07-16T09:50:50;21.90;99.90
27226;DHT22;14732;51.074;3.788;2023-07-16T09:53:20;22.00;99.90
27226;DHT22;14732;51.074;3.788;2023-07-16T09:55:48;22.40;99.90
27226;DHT22;14732;51.074;3.788;2023-07-16T09:58:20;22.40;99.90
27226;DHT22;14732;51.074;3.788;2023-07-16T10:00:51;22.60;99.90
27226;DHT22;14732;51.074;3.788;2023-07-16T10:03:26;22.60;99.90
27226;DHT22;14732;51.074;3.788;2023-07-16T10:05:53;22.90;99.90
27226;DHT22;14732;51.074;3.788;2023-07-16T10:08:49;23.20;99.90
27226;DHT22;14732;51.074;3.788;2023-07-16T10:11:23;23.30;99.90
27226;DHT22;14732;51.074;3.788;2023-07-16T10:13:51;23.40;99.90
27226;DHT22;14732;51.074;3.788;2023-07-16T10:16:22;23.70;99.90
27226;DHT22;14732;51.074;3.788;2023-07-16T10:18:53;23.80;99.90
27226;DHT22;14732;51.074;3.788;2023-07-16T10:21:23;23.90;99.90
27226;DHT22;14732;51.074;3.788;2023-07-16T10:23:59;24.00;99.90
27226;DHT22;14732;51.074;3.788;2023-07-16T10:26:27;24.00;99.90
27226;DHT22;14732;51.074;3.788;2023-07-16T10:28:56;24.00;99.90
27226;DHT22;14732;51.074;3.788;2023-07-16T10:31:25;24.00;99.90
27226;DHT22;14732;51.074;3.788;2023-07-16T10:34:04;24.00;99.90
27226;DHT22;14732;51.074;3.788;2023-07-16T10:36:41;24.20;99.90
27226;DHT22;14732;51.074;3.788;2023-07-16T10:39:08;23.90;99.90
27226;DHT22;14732;51.074;3.788;2023-07-16T10:41:35;23.80;99.90
27226;DHT22;14732;51.074;3.788;2023-07-16T10:44:08;23.80;99.90
27226;DHT22;14732;51.074;3.788;2023-07-16T10:46:38;23.80;99.90
27226;DHT22;14732;51.074;3.788;2023-07-16T10:49:04;23.90;99.90
27226;DHT22;14732;51.074;3.788;2023-07-16T10:51:29;24.10;99.90
27226;DHT22;14732;51.074;3.788;2023-07-16T10:53:56;24.00;99.90
27226;DHT22;14732;51.074;3.788;2023-07-16T10:56:22;24.10;99.90
27226;DHT22;14732;51.074;3.788;2023-07-16T10:58:48;24.30;99.90
27226;DHT22;14732;51.074;3.788;2023-07-16T11:01:15;24.20;99.90
27226;DHT22;14732;51.074;3.788;2023-07-16T11:03:40;24.30;99.90
27226;DHT22;14732;51.074;3.788;2023-07-16T11:06:08;24.60;99.90
27226;DHT22;14732;51.074;3.788;2023-07-16T11:08:33;24.60;99.90
27226;DHT22;14732;51.074;3.788;2023-07-16T11:10:59;24.50;99.90
27226;DHT22;14732;51.074;3.788;2023-07-16T11:13:27;24.40;99.90
27226;DHT22;14732;51.074;3.788;2023-07-16T11:15:53;24.50;99.90
27226;DHT22;14732;51.074;3.788;2023-07-16T11:18:18;24.70;99.90
27226;DHT22;14732;51.074;3.788;2023-07-16T11:20:44;24.90;99.90
27226;DHT22;14732;51.074;3.788;2023-07-16T11:23:10;24.80;99.90
27226;DHT22;14732;51.074;3.788;2023-07-16T11:25:36;24.70;99.90
27226;DHT22;14732;51.074;3.788;2023-07-16T11:28:02;24.60;99.90
27226;DHT22;14732;51.074;3.788;2023-07-16T11:30:28;24.60;99.90
27226;DHT22;14732;51.074;3.788;2023-07-16T11:32:54;24.80;99.90
27226;DHT22;14732;51.074;3.788;2023-07-16T11:35:20;25.10;99.90
27226;DHT22;14732;51.074;3.788;2023-07-16T11:37:47;25.30;99.90
27226;DHT22;14732;51.074;3.788;2023-07-16T11:40:17;25.60;99.90
27226;DHT22;14732;51.074;3.788;2023-07-16T11:42:43;25.70;99.90
27226;DHT22;14732;51.074;3.788;2023-07-16T11:45:24;25.70;99.90
27226;DHT22;14732;51.074;3.788;2023-07-16T11:47:52;25.10;99.90
27226;DHT22;14732;51.074;3.788;2023-07-16T11:50:19;24.90;99.90
27226;DHT22;14732;51.074;3.788;2023-07-16T11:53:03;24.80;99.90
27226;DHT22;14732;51.074;3.788;2023-07-16T11:55:29;24.70;99.90
27226;DHT22;14732;51.074;3.788;2023-07-16T11:57:58;24.60;99.90
27226;DHT22;14732;51.074;3.788;2023-07-16T12:00:25;24.50;99.90
27226;DHT22;14732;51.074;3.788;2023-07-16T12:02:51;24.60;99.90
27226;DHT22;14732;51.074;3.788;2023-07-16T12:05:19;24.60;99.90
27226;DHT22;14732;51.074;3.788;2023-07-16T12:07:45;24.60;99.90
27226;DHT22;14732;51.074;3.788;2023-07-16T12:10:14;24.70;99.90
27226;DHT22;14732;51.074;3.788;2023-07-16T12:13:03;24.70;99.90
27226;DHT22;14732;51.074;3.788;2023-07-16T12:15:35;25.00;99.90
27226;DHT22;14732;51.074;3.788;2023-07-16T12:18:07;25.30;99.90
27226;DHT22;14732;51.074;3.788;2023-07-16T12:20:35;25.50;99.90
27226;DHT22;14732;51.074;3.788;2023-07-16T12:23:02;25.40;99.90
27226;DHT22;14732;51.074;3.788;2023-07-16T12:25:29;25.50;99.90
27226;DHT22;14732;51.074;3.788;2023-07-16T12:27:56;25.70;99.90
27226;DHT22;14732;51.074;3.788;2023-07-16T12:30:24;25.80;99.90
27226;DHT22;14732;51.074;3.788;2023-07-16T12:32:52;25.50;99.90
27226;DHT22;14732;51.074;3.788;2023-07-16T12:35:22;25.80;99.90
27226;DHT22;14732;51.074;3.788;2023-07-16T12:37:49;25.70;99.90
27226;DHT22;14732;51.074;3.788;2023-07-16T12:40:19;25.70;99.90
27226;DHT22;14732;51.074;3.788;2023-07-16T12:42:45;25.80;99.90
27226;DHT22;14732;51.074;3.788;2023-07-16T12:45:11;25.70;99.90
27226;DHT22;14732;51.074;3.788;2023-07-16T12:47:37;25.60;99.90
27226;DHT22;14732;51.074;3.788;2023-07-16T12:50:04;25.40;99.90
27226;DHT22;14732;51.074;3.788;2023-07-16T12:52:30;25.20;99.90
27226;DHT22;14732;51.074;3.788;2023-07-16T12:54:59;25.00;99.90
27226;DHT22;14732;51.074;3.788;2023-07-16T12:57:31;25.00;99.90
27226;DHT22;14732;51.074;3.788;2023-07-16T13:00:00;25.00;99.90
27226;DHT22;14732;51.074;3.788;2023-07-16T13:02:28;25.00;99.90
27226;DHT22;14732;51.074;3.788;2023-07-16T13:05:00;25.00;99.90
27226;DHT22;14732;51.074;3.788;2023-07-16T13:07:28;24.90;99.90
27226;DHT22;14732;51.074;3.788;2023-07-16T13:09:59;24.90;99.90
27226;DHT22;14732;51.074;3.788;2023-07-16T13:12:27;24.90;99.90
27226;DHT22;14732;51.074;3.788;2023-07-16T13:14:52;24.80;99.90
27226;DHT22;14732;51.074;3.788;2023-07-16T13:17:20;24.70;99.90
27226;DHT22;14732;51.074;3.788;2023-07-16T13:19:46;24.70;99.90
27226;DHT22;14732;51.074;3.788;2023-07-16T13:22:16;24.70;99.90
27226;DHT22;14732;51.074;3.788;2023-07-16T13:24:43;24.90;99.90
27226;DHT22;14732;51.074;3.788;2023-07-16T13:27:19;25.10;99.90
27226;DHT22;14732;51.074;3.788;2023-07-16T13:29:48;25.20;99.90
27226;DHT22;14732;51.074;3.788;2023-07-16T13:32:15;25.50;99.90
27226;DHT22;14732;51.074;3.788;2023-07-16T13:34:46;25.70;99.90
27226;DHT22;14732;51.074;3.788;2023-07-16T13:37:12;25.70;99.90
27226;DHT22;14732;51.074;3.788;2023-07-16T13:39:39;25.70;99.90
27226;DHT22;14732;51.074;3.788;2023-07-16T13:42:06;25.60;99.90
27226;DHT22;14732;51.074;3.788;2023-07-16T13:44:33;25.60;99.90
27226;DHT22;14732;51.074;3.788;2023-07-16T13:47:00;25.30;99.90
27226;DHT22;14732;51.074;3.788;2023-07-16T13:49:25;25.20;99.90
27226;DHT22;14732;51.074;3.788;2023-07-16T13:51:52;25.10;99.90
27226;DHT22;14732;51.074;3.788;2023-07-16T13:54:21;24.90;99.90
27226;DHT22;14732;51.074;3.788;2023-07-16T13:56:50;24.90;99.90
27226;DHT22;14732;51.074;3.788;2023-07-16T13:59:16;24.80;99.90
27226;DHT22;14732;51.074;3.788;2023-07-16T14:01:42;24.90;99.90
27226;DHT22;14732;51.074;3.788;2023-07-16T14:04:08;24.90;99.90
27226;DHT22;14732;51.074;3.788;2023-07-16T14:06:34;25.00;99.90
27226;DHT22;14732;51.074;3.788;2023-07-16T14:09:00;25.10;99.90
27226;DHT22;14732;51.074;3.788;2023-07-16T14:11:26;25.40;99.90
27226;DHT22;14732;51.074;3.788;2023-07-16T14:13:52;25.70;99.90
27226;DHT22;14732;51.074;3.788;2023-07-16T14:16:19;25.80;99.90
27226;DHT22;14732;51.074;3.788;2023-07-16T14:18:45;25.70;99.90
27226;DHT22;14732;51.074;3.788;2023-07-16T14:21:11;25.70;99.90
27226;DHT22;14732;51.074;3.788;2023-07-16T14:23:36;25.70;99.90
27226;DHT22;14732;51.074;3.788;2023-07-16T14:26:02;25.60;99.90
27226;DHT22;14732;51.074;3.788;2023-07-16T14:28:28;25.60;99.90
27226;DHT22;14732;51.074;3.788;2023-07-16T14:30:55;25.60;99.90
27226;DHT22;14732;51.074;3.788;2023-07-16T14:33:21;25.60;99.90
27226;DHT22;14732;51.074;3.788;2023-07-16T14:35:46;25.50;99.90
27226;DHT22;14732;51.074;3.788;2023-07-16T14:38:12;25.40;99.90
27226;DHT22;14732;51.074;3.788;2023-07-16T14:40:38;25.30;99.90
27226;DHT22;14732;51.074;3.788;2023-07-16T14:43:06;25.30;99.90
27226;DHT22;14732;51.074;3.788;2023-07-16T14:45:33;25.10;99.90
27226;DHT22;14732;51.074;3.788;2023-07-16T14:47:59;25.20;99.90
27226;DHT22;14732;51.074;3.788;2023-07-16T14:50:24;25.30;99.90
27226;DHT22;14732;51.074;3.788;2023-07-16T14:52:50;25.40;99.90
27226;DHT22;14732;51.074;3.788;2023-07-16T14:55:16;25.40;99.90
27226;DHT22;14732;51.074;3.788;2023-07-16T14:57:41;25.60;99.90
27226;DHT22;14732;51.074;3.788;2023-07-16T15:00:08;25.40;99.90
27226;DHT22;14732;51.074;3.788;2023-07-16T15:02:37;25.30;99.90
27226;DHT22;14732;51.074;3.788;2023-07-16T15:05:07;25.20;99.90
27226;DHT22;14732;51.074;3.788;2023-07-16T15:07:34;25.10;99.90
27226;DHT22;14732;51.074;3.788;2023-07-16T15:10:15;24.90;99.90
27226;DHT22;14732;51.074;3.788;2023-07-16T15:12:42;24.80;99.90
27226;DHT22;14732;51.074;3.788;2023-07-16T15:15:10;24.70;99.90
27226;DHT22;14732;51.074;3.788;2023-07-16T15:17:42;24.50;99.90
27226;DHT22;14732;51.074;3.788;2023-07-16T15:20:09;24.10;99.90
27226;DHT22;14732;51.074;3.788;2023-07-16T15:22:34;23.80;99.90
27226;DHT22;14732;51.074;3.788;2023-07-16T15:25:01;23.50;99.90
27226;DHT22;14732;51.074;3.788;2023-07-16T15:27:35;23.40;99.90
27226;DHT22;14732;51.074;3.788;2023-07-16T15:30:01;23.20;99.90
27226;DHT22;14732;51.074;3.788;2023-07-16T15:32:27;23.20;99.90
27226;DHT22;14732;51.074;3.788;2023-07-16T15:34:53;23.20;99.90
27226;DHT22;14732;51.074;3.788;2023-07-16T15:37:20;23.20;99.90
27226;DHT22;14732;51.074;3.788;2023-07-16T15:39:47;23.20;99.90